General Aviation Weather

Text Reports

Enter one or more of the following location identifiers separated by a space:

Zip Code, Four-Character ICAO or Three-Character IATA airport codes.

METAR - Aviation Routine Weather Report
ESSB - Stockholm Bromma,
Updated at 11:50 PM GMT on March 31, 2015 (1:50 AM CEST):
METAR ESSB 312350Z AUTO 19003KT 160V220 3200 BR OVC001/// 01/01 Q0987
TAF - Terminal Area Forecast
ESSB - Stockholm Bromma,
Updated at 11:50 PM GMT on March 31, 2015 (1:50 AM CEST):
No TAF is currently available for this location.
Decoded:
No decoded TAF is available.
PIREP - Pilot Weather Report
ESSB - Stockholm Bromma,
Updated at 11:50 PM GMT on March 31, 2015 (1:50 AM CEST):
No PIREP is currently available for this location.
AIRMET - Airmens Meteorological Information
ESSB - Stockholm Bromma,
Updated at 11:50 PM GMT on March 31, 2015 (1:50 AM CEST):
No AIRMET is currently available for this location.
SIGMET - Significant Meteorological Information
ESSB - Stockholm Bromma,
Updated at 11:50 PM GMT on March 31, 2015 (1:50 AM CEST):
No SIGMET is currently available for this location.
NOTAM - Notice to Airmen
ESSB - Stockholm Bromma,
Updated at 11:50 PM GMT on March 31, 2015 (1:50 AM CEST):
No NOTAM is currently available for this location.
Forecast Area
ESSB - Stockholm Bromma,
Updated at 11:50 PM GMT on March 31, 2015 (1:50 AM CEST):
No NOTAM is currently available for this location.
Aviation Weather Maps